sensor_id;sensor_type;location;lat;lon;timestamp;temperature;humidity
1361;DHT22;674;45.552;-122.600;2024-01-27T00:01:20;6.20;99.90
1361;DHT22;674;45.552;-122.600;2024-01-27T00:03:48;6.30;99.90
1361;DHT22;674;45.552;-122.600;2024-01-27T00:06:18;6.20;99.90
1361;DHT22;674;45.552;-122.600;2024-01-27T00:08:46;6.20;99.90
1361;DHT22;674;45.552;-122.600;2024-01-27T00:11:15;6.10;99.90
1361;DHT22;674;45.552;-122.600;2024-01-27T00:13:45;6.30;99.90
1361;DHT22;674;45.552;-122.600;2024-01-27T00:16:14;6.30;99.90
1361;DHT22;674;45.552;-122.600;2024-01-27T00:18:42;6.20;99.90
1361;DHT22;674;45.552;-122.600;2024-01-27T00:21:11;6.30;99.90
1361;DHT22;674;45.552;-122.600;2024-01-27T00:23:40;6.10;99.90
1361;DHT22;674;45.552;-122.600;2024-01-27T00:26:09;6.30;99.90
1361;DHT22;674;45.552;-122.600;2024-01-27T00:28:39;6.10;99.90
1361;DHT22;674;45.552;-122.600;2024-01-27T00:31:07;6.10;99.90
1361;DHT22;674;45.552;-122.600;2024-01-27T00:33:36;6.30;99.90
1361;DHT22;674;45.552;-122.600;2024-01-27T00:36:05;6.20;99.90
1361;DHT22;674;45.552;-122.600;2024-01-27T00:38:33;6.30;99.90
1361;DHT22;674;45.552;-122.600;2024-01-27T00:41:02;6.30;99.90
1361;DHT22;674;45.552;-122.600;2024-01-27T00:43:31;6.00;99.90
1361;DHT22;674;45.552;-122.600;2024-01-27T00:46:00;6.30;99.90
1361;DHT22;674;45.552;-122.600;2024-01-27T00:48:28;6.20;99.90
1361;DHT22;674;45.552;-122.600;2024-01-27T00:50:57;6.20;99.90
1361;DHT22;674;45.552;-122.600;2024-01-27T00:53:25;6.00;99.90
1361;DHT22;674;45.552;-122.600;2024-01-27T00:55:55;6.10;99.90
1361;DHT22;674;45.552;-122.600;2024-01-27T00:58:23;6.20;99.90
1361;DHT22;674;45.552;-122.600;2024-01-27T01:00:52;6.10;99.90
1361;DHT22;674;45.552;-122.600;2024-01-27T01:03:20;6.20;99.90
1361;DHT22;674;45.552;-122.600;2024-01-27T01:05:49;6.20;99.90
1361;DHT22;674;45.552;-122.600;2024-01-27T01:08:18;6.20;99.90
1361;DHT22;674;45.552;-122.600;2024-01-27T01:10:47;6.20;99.90
1361;DHT22;674;45.552;-122.600;2024-01-27T01:13:15;6.20;99.90
1361;DHT22;674;45.552;-122.600;2024-01-27T01:15:44;6.30;99.90
1361;DHT22;674;45.552;-122.600;2024-01-27T01:18:16;6.20;99.90
1361;DHT22;674;45.552;-122.600;2024-01-27T01:20:45;6.20;99.90
1361;DHT22;674;45.552;-122.600;2024-01-27T01:23:14;6.20;99.90
1361;DHT22;674;45.552;-122.600;2024-01-27T01:25:42;6.20;99.90
1361;DHT22;674;45.552;-122.600;2024-01-27T01:28:12;6.20;99.90
1361;DHT22;674;45.552;-122.600;2024-01-27T01:30:41;6.20;99.90
1361;DHT22;674;45.552;-122.600;2024-01-27T01:33:11;6.00;99.90
1361;DHT22;674;45.552;-122.600;2024-01-27T01:35:39;6.10;99.90
1361;DHT22;674;45.552;-122.600;2024-01-27T01:38:08;6.30;99.90
1361;DHT22;674;45.552;-122.600;2024-01-27T01:40:36;6.20;99.90
1361;DHT22;674;45.552;-122.600;2024-01-27T01:43:12;6.00;99.90
1361;DHT22;674;45.552;-122.600;2024-01-27T01:45:41;6.30;99.90
1361;DHT22;674;45.552;-122.600;2024-01-27T01:48:09;6.10;99.90
1361;DHT22;674;45.552;-122.600;2024-01-27T01:50:38;6.30;99.90
1361;DHT22;674;45.552;-122.600;2024-01-27T01:53:07;6.30;99.90
1361;DHT22;674;45.552;-122.600;2024-01-27T01:55:37;6.10;99.90
1361;DHT22;674;45.552;-122.600;2024-01-27T01:58:06;6.00;99.90
1361;DHT22;674;45.552;-122.600;2024-01-27T02:00:34;6.10;99.90
1361;DHT22;674;45.552;-122.600;2024-01-27T02:03:03;6.00;99.90
1361;DHT22;674;45.552;-122.600;2024-01-27T02:05:32;6.10;99.90
1361;DHT22;674;45.552;-122.600;2024-01-27T02:08:01;6.20;99.90
1361;DHT22;674;45.552;-122.600;2024-01-27T02:10:32;6.30;99.90
1361;DHT22;674;45.552;-122.600;2024-01-27T02:13:20;6.20;99.90
1361;DHT22;674;45.552;-122.600;2024-01-27T02:15:50;6.00;99.90
1361;DHT22;674;45.552;-122.600;2024-01-27T02:18:19;6.20;99.90
1361;DHT22;674;45.552;-122.600;2024-01-27T02:20:49;6.10;99.90
1361;DHT22;674;45.552;-122.600;2024-01-27T02:23:17;6.20;99.90
1361;DHT22;674;45.552;-122.600;2024-01-27T02:25:46;6.00;99.90
1361;DHT22;674;45.552;-122.600;2024-01-27T02:28:15;6.30;99.90
1361;DHT22;674;45.552;-122.600;2024-01-27T02:30:43;6.00;99.90
1361;DHT22;674;45.552;-122.600;2024-01-27T02:33:12;6.00;99.90
1361;DHT22;674;45.552;-122.600;2024-01-27T02:35:41;6.20;99.90
1361;DHT22;674;45.552;-122.600;2024-01-27T02:38:11;6.20;99.90
1361;DHT22;674;45.552;-122.600;2024-01-27T02:40:40;6.10;99.90
1361;DHT22;674;45.552;-122.600;2024-01-27T02:43:08;6.30;99.90
1361;DHT22;674;45.552;-122.600;2024-01-27T02:45:37;6.30;99.90
1361;DHT22;674;45.552;-122.600;2024-01-27T02:48:06;6.30;99.90
1361;DHT22;674;45.552;-122.600;2024-01-27T02:50:35;6.30;99.90
1361;DHT22;674;45.552;-122.600;2024-01-27T02:53:04;6.30;99.90
1361;DHT22;674;45.552;-122.600;2024-01-27T02:55:32;6.30;99.90
1361;DHT22;674;45.552;-122.600;2024-01-27T02:58:01;6.30;99.90
1361;DHT22;674;45.552;-122.600;2024-01-27T03:00:30;6.30;99.90
1361;DHT22;674;45.552;-122.600;2024-01-27T03:02:58;6.50;99.90
1361;DHT22;674;45.552;-122.600;2024-01-27T03:05:27;6.30;99.90
1361;DHT22;674;45.552;-122.600;2024-01-27T03:07:56;6.60;99.90
1361;DHT22;674;45.552;-122.600;2024-01-27T03:10:25;6.20;99.90
1361;DHT22;674;45.552;-122.600;2024-01-27T03:12:54;6.30;99.90
1361;DHT22;674;45.552;-122.600;2024-01-27T03:15:22;6.30;99.90
1361;DHT22;674;45.552;-122.600;2024-01-27T03:17:51;6.30;99.90
1361;DHT22;674;45.552;-122.600;2024-01-27T03:20:20;6.60;99.90
1361;DHT22;674;45.552;-122.600;2024-01-27T03:22:49;6.30;99.90
1361;DHT22;674;45.552;-122.600;2024-01-27T03:25:18;6.50;99.90
1361;DHT22;674;45.552;-122.600;2024-01-27T03:27:46;6.50;99.90
1361;DHT22;674;45.552;-122.600;2024-01-27T03:30:15;6.50;99.90
1361;DHT22;674;45.552;-122.600;2024-01-27T03:32:44;6.50;99.90
1361;DHT22;674;45.552;-122.600;2024-01-27T03:35:13;6.50;99.90
1361;DHT22;674;45.552;-122.600;2024-01-27T03:37:41;6.50;99.90
1361;DHT22;674;45.552;-122.600;2024-01-27T03:40:10;6.50;99.90
1361;DHT22;674;45.552;-122.600;2024-01-27T03:42:39;6.50;99.90
1361;DHT22;674;45.552;-122.600;2024-01-27T03:45:08;6.20;99.90
1361;DHT22;674;45.552;-122.600;2024-01-27T03:47:36;6.30;99.90
1361;DHT22;674;45.552;-122.600;2024-01-27T03:50:06;6.20;99.90
1361;DHT22;674;45.552;-122.600;2024-01-27T03:52:35;6.50;99.90
1361;DHT22;674;45.552;-122.600;2024-01-27T03:55:07;6.20;99.90
1361;DHT22;674;45.552;-122.600;2024-01-27T03:57:36;6.60;99.90
1361;DHT22;674;45.552;-122.600;2024-01-27T04:00:05;6.60;99.90
1361;DHT22;674;45.552;-122.600;2024-01-27T04:02:34;6.20;99.90
1361;DHT22;674;45.552;-122.600;2024-01-27T04:05:04;6.30;99.90
1361;DHT22;674;45.552;-122.600;2024-01-27T04:07:32;6.20;99.90
1361;DHT22;674;45.552;-122.600;2024-01-27T04:10:03;6.50;99.90
1361;DHT22;674;45.552;-122.600;2024-01-27T04:12:32;6.30;99.90
1361;DHT22;674;45.552;-122.600;2024-01-27T04:15:01;6.20;99.90
1361;DHT22;674;45.552;-122.600;2024-01-27T04:17:30;6.00;99.90
1361;DHT22;674;45.552;-122.600;2024-01-27T04:19:58;6.50;99.90
1361;DHT22;674;45.552;-122.600;2024-01-27T04:22:29;6.20;99.90
1361;DHT22;674;45.552;-122.600;2024-01-27T04:25:03;6.60;99.90
1361;DHT22;674;45.552;-122.600;2024-01-27T04:27:36;6.10;99.90
1361;DHT22;674;45.552;-122.600;2024-01-27T04:30:06;6.40;99.90
1361;DHT22;674;45.552;-122.600;2024-01-27T04:32:36;6.40;99.90
1361;DHT22;674;45.552;-122.600;2024-01-27T04:35:08;6.40;99.90
1361;DHT22;674;45.552;-122.600;2024-01-27T04:37:37;6.60;99.90
1361;DHT22;674;45.552;-122.600;2024-01-27T04:40:06;6.40;99.90
1361;DHT22;674;45.552;-122.600;2024-01-27T04:42:37;6.50;99.90
1361;DHT22;674;45.552;-122.600;2024-01-27T04:45:06;6.60;99.90
1361;DHT22;674;45.552;-122.600;2024-01-27T04:47:35;6.40;99.90
1361;DHT22;674;45.552;-122.600;2024-01-27T04:50:04;6.50;99.90
1361;DHT22;674;45.552;-122.600;2024-01-27T04:52:34;6.70;99.90
1361;DHT22;674;45.552;-122.600;2024-01-27T04:55:02;6.60;99.90
1361;DHT22;674;45.552;-122.600;2024-01-27T04:57:31;6.40;99.90
1361;DHT22;674;45.552;-122.600;2024-01-27T05:00:00;6.60;99.90
1361;DHT22;674;45.552;-122.600;2024-01-27T05:02:29;6.50;99.90
1361;DHT22;674;45.552;-122.600;2024-01-27T05:04:57;6.50;99.90
1361;DHT22;674;45.552;-122.600;2024-01-27T05:07:26;6.50;99.90
1361;DHT22;674;45.552;-122.600;2024-01-27T05:09:54;6.50;99.90
1361;DHT22;674;45.552;-122.600;2024-01-27T05:12:23;6.70;99.90
1361;DHT22;674;45.552;-122.600;2024-01-27T05:14:51;6.40;99.90
1361;DHT22;674;45.552;-122.600;2024-01-27T05:17:20;6.60;99.90
1361;DHT22;674;45.552;-122.600;2024-01-27T05:19:50;6.40;99.90
1361;DHT22;674;45.552;-122.600;2024-01-27T05:22:19;6.60;99.90
1361;DHT22;674;45.552;-122.600;2024-01-27T05:24:47;6.40;99.90
1361;DHT22;674;45.552;-122.600;2024-01-27T05:27:17;6.30;99.90
1361;DHT22;674;45.552;-122.600;2024-01-27T05:29:45;6.40;99.90
1361;DHT22;674;45.552;-122.600;2024-01-27T05:32:14;6.50;99.90
1361;DHT22;674;45.552;-122.600;2024-01-27T05:34:42;6.60;99.90
1361;DHT22;674;45.552;-122.600;2024-01-27T05:37:11;6.60;99.90
1361;DHT22;674;45.552;-122.600;2024-01-27T05:39:41;6.40;99.90
1361;DHT22;674;45.552;-122.600;2024-01-27T05:42:09;6.50;99.90
1361;DHT22;674;45.552;-122.600;2024-01-27T05:44:38;6.50;99.90
1361;DHT22;674;45.552;-122.600;2024-01-27T05:47:08;6.50;99.90
1361;DHT22;674;45.552;-122.600;2024-01-27T05:49:39;6.50;99.90
1361;DHT22;674;45.552;-122.600;2024-01-27T05:52:08;6.60;99.90
1361;DHT22;674;45.552;-122.600;2024-01-27T05:54:36;6.60;99.90
1361;DHT22;674;45.552;-122.600;2024-01-27T05:57:05;6.40;99.90
1361;DHT22;674;45.552;-122.600;2024-01-27T05:59:34;6.60;99.90
1361;DHT22;674;45.552;-122.600;2024-01-27T06:02:03;6.40;99.90
1361;DHT22;674;45.552;-122.600;2024-01-27T06:04:32;6.30;99.90
1361;DHT22;674;45.552;-122.600;2024-01-27T06:07:01;6.60;99.90
1361;DHT22;674;45.552;-122.600;2024-01-27T06:09:30;6.60;99.90
1361;DHT22;674;45.552;-122.600;2024-01-27T06:12:00;6.40;99.90
1361;DHT22;674;45.552;-122.600;2024-01-27T06:14:29;6.30;99.90
1361;DHT22;674;45.552;-122.600;2024-01-27T06:16:57;6.60;99.90
1361;DHT22;674;45.552;-122.600;2024-01-27T06:19:26;6.40;99.90
1361;DHT22;674;45.552;-122.600;2024-01-27T06:21:55;6.50;99.90
1361;DHT22;674;45.552;-122.600;2024-01-27T06:24:23;6.20;99.90
1361;DHT22;674;45.552;-122.600;2024-01-27T06:26:52;6.20;99.90
1361;DHT22;674;45.552;-122.600;2024-01-27T06:29:21;6.50;99.90
1361;DHT22;674;45.552;-122.600;2024-01-27T06:31:51;6.60;99.90
1361;DHT22;674;45.552;-122.600;2024-01-27T06:34:19;6.20;99.90
1361;DHT22;674;45.552;-122.600;2024-01-27T06:36:48;6.60;99.90
1361;DHT22;674;45.552;-122.600;2024-01-27T06:39:17;6.30;99.90
1361;DHT22;674;45.552;-122.600;2024-01-27T06:41:45;6.60;99.90
1361;DHT22;674;45.552;-122.600;2024-01-27T06:44:14;6.40;99.90
1361;DHT22;674;45.552;-122.600;2024-01-27T06:46:42;6.30;99.90
1361;DHT22;674;45.552;-122.600;2024-01-27T06:49:16;6.30;99.90
1361;DHT22;674;45.552;-122.600;2024-01-27T06:51:46;6.50;99.90
1361;DHT22;674;45.552;-122.600;2024-01-27T06:54:14;6.50;99.90
1361;DHT22;674;45.552;-122.600;2024-01-27T06:56:43;6.50;99.90
1361;DHT22;674;45.552;-122.600;2024-01-27T06:59:11;6.50;99.90
1361;DHT22;674;45.552;-122.600;2024-01-27T07:01:46;6.60;99.90
1361;DHT22;674;45.552;-122.600;2024-01-27T07:04:16;6.50;99.90
1361;DHT22;674;45.552;-122.600;2024-01-27T07:06:45;6.40;99.90
1361;DHT22;674;45.552;-122.600;2024-01-27T07:09:14;6.60;99.90
1361;DHT22;674;45.552;-122.600;2024-01-27T07:11:48;6.40;99.90
1361;DHT22;674;45.552;-122.600;2024-01-27T07:14:17;6.40;99.90
1361;DHT22;674;45.552;-122.600;2024-01-27T07:16:46;6.60;99.90
1361;DHT22;674;45.552;-122.600;2024-01-27T07:19:14;6.60;99.90
1361;DHT22;674;45.552;-122.600;2024-01-27T07:21:44;6.60;99.90
1361;DHT22;674;45.552;-122.600;2024-01-27T07:24:13;6.60;99.90
1361;DHT22;674;45.552;-122.600;2024-01-27T07:26:41;6.60;99.90
1361;DHT22;674;45.552;-122.600;2024-01-27T07:29:10;6.40;99.90
1361;DHT22;674;45.552;-122.600;2024-01-27T07:31:39;6.40;99.90
1361;DHT22;674;45.552;-122.600;2024-01-27T07:34:08;6.50;99.90
1361;DHT22;674;45.552;-122.600;2024-01-27T07:36:37;6.50;99.90
1361;DHT22;674;45.552;-122.600;2024-01-27T07:39:05;6.60;99.90
1361;DHT22;674;45.552;-122.600;2024-01-27T07:41:34;6.60;99.90
1361;DHT22;674;45.552;-122.600;2024-01-27T07:44:13;6.90;99.90
1361;DHT22;674;45.552;-122.600;2024-01-27T07:46:42;6.70;99.90
1361;DHT22;674;45.552;-122.600;2024-01-27T07:49:11;6.80;99.90
1361;DHT22;674;45.552;-122.600;2024-01-27T07:51:41;6.80;99.90
1361;DHT22;674;45.552;-122.600;2024-01-27T07:54:09;6.90;99.90
1361;DHT22;674;45.552;-122.600;2024-01-27T07:56:38;6.70;99.90
1361;DHT22;674;45.552;-122.600;2024-01-27T07:59:07;6.70;99.90
1361;DHT22;674;45.552;-122.600;2024-01-27T08:01:42;7.00;99.90
1361;DHT22;674;45.552;-122.600;2024-01-27T08:04:10;6.90;99.90
1361;DHT22;674;45.552;-122.600;2024-01-27T08:06:50;6.90;99.90
1361;DHT22;674;45.552;-122.600;2024-01-27T08:09:19;6.80;99.90
1361;DHT22;674;45.552;-122.600;2024-01-27T08:11:48;6.80;99.90
1361;DHT22;674;45.552;-122.600;2024-01-27T08:14:20;6.80;99.90
1361;DHT22;674;45.552;-122.600;2024-01-27T08:16:50;6.90;99.90
1361;DHT22;674;45.552;-122.600;2024-01-27T08:19:21;6.90;99.90
1361;DHT22;674;45.552;-122.600;2024-01-27T08:21:50;6.70;99.90
1361;DHT22;674;45.552;-122.600;2024-01-27T08:24:19;7.00;99.90
1361;DHT22;674;45.552;-122.600;2024-01-27T08:26:47;6.70;99.90
1361;DHT22;674;45.552;-122.600;2024-01-27T08:29:16;6.60;99.90
1361;DHT22;674;45.552;-122.600;2024-01-27T08:31:45;6.70;99.90
1361;DHT22;674;45.552;-122.600;2024-01-27T08:34:13;6.40;99.90
1361;DHT22;674;45.552;-122.600;2024-01-27T08:36:42;6.80;99.90
1361;DHT22;674;45.552;-122.600;2024-01-27T08:39:11;6.80;99.90
1361;DHT22;674;45.552;-122.600;2024-01-27T08:41:40;6.60;99.90
1361;DHT22;674;45.552;-122.600;2024-01-27T08:44:09;6.60;99.90
1361;DHT22;674;45.552;-122.600;2024-01-27T08:46:37;6.60;99.90
1361;DHT22;674;45.552;-122.600;2024-01-27T08:49:06;6.60;99.90
1361;DHT22;674;45.552;-122.600;2024-01-27T08:51:35;6.60;99.90
1361;DHT22;674;45.552;-122.600;2024-01-27T08:54:03;6.80;99.90
1361;DHT22;674;45.552;-122.600;2024-01-27T08:56:32;6.60;99.90
1361;DHT22;674;45.552;-122.600;2024-01-27T08:59:00;6.50;99.90
1361;DHT22;674;45.552;-122.600;2024-01-27T09:01:29;6.60;99.90
1361;DHT22;674;45.552;-122.600;2024-01-27T09:03:57;6.60;99.90
1361;DHT22;674;45.552;-122.600;2024-01-27T09:06:26;6.60;99.90
1361;DHT22;674;45.552;-122.600;2024-01-27T09:08:58;6.60;99.90
1361;DHT22;674;45.552;-122.600;2024-01-27T09:11:27;6.50;99.90
1361;DHT22;674;45.552;-122.600;2024-01-27T09:13:58;6.60;99.90
1361;DHT22;674;45.552;-122.600;2024-01-27T09:16:26;6.60;99.90
1361;DHT22;674;45.552;-122.600;2024-01-27T09:18:55;6.50;99.90
1361;DHT22;674;45.552;-122.600;2024-01-27T09:21:24;6.70;99.90
1361;DHT22;674;45.552;-122.600;2024-01-27T09:23:58;6.60;99.90
1361;DHT22;674;45.552;-122.600;2024-01-27T09:26:26;6.60;99.90
1361;DHT22;674;45.552;-122.600;2024-01-27T09:28:55;6.70;99.90
1361;DHT22;674;45.552;-122.600;2024-01-27T09:31:24;6.60;99.90
1361;DHT22;674;45.552;-122.600;2024-01-27T09:33:54;6.60;99.90
1361;DHT22;674;45.552;-122.600;2024-01-27T09:36:24;6.50;99.90
1361;DHT22;674;45.552;-122.600;2024-01-27T09:38:54;6.50;99.90
1361;DHT22;674;45.552;-122.600;2024-01-27T09:41:22;6.60;99.90
1361;DHT22;674;45.552;-122.600;2024-01-27T09:43:52;6.50;99.90
1361;DHT22;674;45.552;-122.600;2024-01-27T09:46:22;6.60;99.90
1361;DHT22;674;45.552;-122.600;2024-01-27T09:48:52;6.60;99.90
1361;DHT22;674;45.552;-122.600;2024-01-27T09:51:22;6.70;99.90
1361;DHT22;674;45.552;-122.600;2024-01-27T09:53:51;6.90;99.90
1361;DHT22;674;45.552;-122.600;2024-01-27T09:56:21;6.60;99.90
1361;DHT22;674;45.552;-122.600;2024-01-27T09:58:50;6.90;99.90
1361;DHT22;674;45.552;-122.600;2024-01-27T10:01:24;6.90;99.90
1361;DHT22;674;45.552;-122.600;2024-01-27T10:03:54;6.90;99.90
1361;DHT22;674;45.552;-122.600;2024-01-27T10:06:23;6.90;99.90
1361;DHT22;674;45.552;-122.600;2024-01-27T10:08:54;6.60;99.90
1361;DHT22;674;45.552;-122.600;2024-01-27T10:11:23;7.00;99.90
1361;DHT22;674;45.552;-122.600;2024-01-27T10:13:56;6.90;99.90
1361;DHT22;674;45.552;-122.600;2024-01-27T10:16:27;6.80;99.90
1361;DHT22;674;45.552;-122.600;2024-01-27T10:19:00;6.80;99.90
1361;DHT22;674;45.552;-122.600;2024-01-27T10:21:29;6.70;99.90
1361;DHT22;674;45.552;-122.600;2024-01-27T10:24:00;6.90;99.90
1361;DHT22;674;45.552;-122.600;2024-01-27T10:26:32;6.70;99.90
1361;DHT22;674;45.552;-122.600;2024-01-27T10:29:02;6.70;99.90
1361;DHT22;674;45.552;-122.600;2024-01-27T10:31:34;6.70;99.90
1361;DHT22;674;45.552;-122.600;2024-01-27T10:34:04;6.90;99.90
1361;DHT22;674;45.552;-122.600;2024-01-27T10:36:41;6.90;99.90
1361;DHT22;674;45.552;-122.600;2024-01-27T10:39:22;6.90;99.90
1361;DHT22;674;45.552;-122.600;2024-01-27T10:41:52;6.80;99.90
1361;DHT22;674;45.552;-122.600;2024-01-27T10:44:20;6.90;99.90
1361;DHT22;674;45.552;-122.600;2024-01-27T10:46:50;6.70;99.90
1361;DHT22;674;45.552;-122.600;2024-01-27T10:49:20;7.00;99.90
1361;DHT22;674;45.552;-122.600;2024-01-27T10:51:55;6.90;99.90
1361;DHT22;674;45.552;-122.600;2024-01-27T10:54:25;6.60;99.90
1361;DHT22;674;45.552;-122.600;2024-01-27T10:56:58;6.90;99.90
1361;DHT22;674;45.552;-122.600;2024-01-27T10:59:28;6.90;99.90
1361;DHT22;674;45.552;-122.600;2024-01-27T11:01:59;6.90;99.90
1361;DHT22;674;45.552;-122.600;2024-01-27T11:04:28;6.90;99.90
1361;DHT22;674;45.552;-122.600;2024-01-27T11:07:00;6.70;99.90
1361;DHT22;674;45.552;-122.600;2024-01-27T11:09:30;6.70;99.90
1361;DHT22;674;45.552;-122.600;2024-01-27T11:11:59;6.90;99.90
1361;DHT22;674;45.552;-122.600;2024-01-27T11:14:29;6.90;99.90
1361;DHT22;674;45.552;-122.600;2024-01-27T11:16:58;6.80;99.90
1361;DHT22;674;45.552;-122.600;2024-01-27T11:19:27;6.80;99.90
1361;DHT22;674;45.552;-122.600;2024-01-27T11:22:03;6.60;99.90
1361;DHT22;674;45.552;-122.600;2024-01-27T11:24:32;6.90;99.90
1361;DHT22;674;45.552;-122.600;2024-01-27T11:27:05;6.70;99.90
1361;DHT22;674;45.552;-122.600;2024-01-27T11:29:35;6.80;99.90
1361;DHT22;674;45.552;-122.600;2024-01-27T11:32:15;6.60;99.90
1361;DHT22;674;45.552;-122.600;2024-01-27T11:34:45;6.40;99.90
1361;DHT22;674;45.552;-122.600;2024-01-27T11:37:17;6.60;99.90
1361;DHT22;674;45.552;-122.600;2024-01-27T11:39:52;6.40;99.90
1361;DHT22;674;45.552;-122.600;2024-01-27T11:42:32;6.60;99.90
1361;DHT22;674;45.552;-122.600;2024-01-27T11:45:01;6.40;99.90
1361;DHT22;674;45.552;-122.600;2024-01-27T11:47:29;6.60;99.90
1361;DHT22;674;45.552;-122.600;2024-01-27T11:49:58;6.60;99.90
1361;DHT22;674;45.552;-122.600;2024-01-27T11:52:28;6.50;99.90
1361;DHT22;674;45.552;-122.600;2024-01-27T11:55:00;6.60;99.90
1361;DHT22;674;45.552;-122.600;2024-01-27T11:57:29;6.90;99.90
1361;DHT22;674;45.552;-122.600;2024-01-27T11:59:58;6.60;99.90
1361;DHT22;674;45.552;-122.600;2024-01-27T12:02:27;6.90;99.90
1361;DHT22;674;45.552;-122.600;2024-01-27T12:04:55;6.90;99.90
1361;DHT22;674;45.552;-122.600;2024-01-27T12:07:26;6.60;99.90
1361;DHT22;674;45.552;-122.600;2024-01-27T12:09:55;6.90;99.90
1361;DHT22;674;45.552;-122.600;2024-01-27T12:12:24;6.90;99.90
1361;DHT22;674;45.552;-122.600;2024-01-27T12:14:52;6.80;99.90
1361;DHT22;674;45.552;-122.600;2024-01-27T12:17:22;6.90;99.90
1361;DHT22;674;45.552;-122.600;2024-01-27T12:19:53;6.90;99.90
1361;DHT22;674;45.552;-122.600;2024-01-27T12:22:27;7.00;99.90
1361;DHT22;674;45.552;-122.600;2024-01-27T12:25:11;7.00;99.90
1361;DHT22;674;45.552;-122.600;2024-01-27T12:27:42;6.90;99.90
1361;DHT22;674;45.552;-122.600;2024-01-27T12:30:12;7.00;99.90
1361;DHT22;674;45.552;-122.600;2024-01-27T12:32:42;6.80;99.90
1361;DHT22;674;45.552;-122.600;2024-01-27T12:35:11;6.80;99.90
1361;DHT22;674;45.552;-122.600;2024-01-27T12:37:43;6.80;99.90
1361;DHT22;674;45.552;-122.600;2024-01-27T12:40:19;6.90;99.90
1361;DHT22;674;45.552;-122.600;2024-01-27T12:42:51;6.60;99.90
1361;DHT22;674;45.552;-122.600;2024-01-27T12:45:19;6.90;99.90
1361;DHT22;674;45.552;-122.600;2024-01-27T12:47:48;7.00;99.90
1361;DHT22;674;45.552;-122.600;2024-01-27T12:50:18;7.00;99.90
1361;DHT22;674;45.552;-122.600;2024-01-27T12:52:47;6.80;99.90
1361;DHT22;674;45.552;-122.600;2024-01-27T12:55:15;6.90;99.90
1361;DHT22;674;45.552;-122.600;2024-01-27T12:57:45;6.90;99.90
1361;DHT22;674;45.552;-122.600;2024-01-27T13:00:14;6.90;99.90
1361;DHT22;674;45.552;-122.600;2024-01-27T13:02:43;7.20;99.90
1361;DHT22;674;45.552;-122.600;2024-01-27T13:05:11;7.20;99.90
1361;DHT22;674;45.552;-122.600;2024-01-27T13:07:42;7.00;99.90
1361;DHT22;674;45.552;-122.600;2024-01-27T13:10:13;7.00;99.90
1361;DHT22;674;45.552;-122.600;2024-01-27T13:12:42;7.00;99.90
1361;DHT22;674;45.552;-122.600;2024-01-27T13:15:12;7.00;99.90
1361;DHT22;674;45.552;-122.600;2024-01-27T13:17:42;7.10;99.90
1361;DHT22;674;45.552;-122.600;2024-01-27T13:20:11;7.20;99.90
1361;DHT22;674;45.552;-122.600;2024-01-27T13:22:42;7.20;99.90
1361;DHT22;674;45.552;-122.600;2024-01-27T13:25:11;7.10;99.90
1361;DHT22;674;45.552;-122.600;2024-01-27T13:27:39;7.30;99.90
1361;DHT22;674;45.552;-122.600;2024-01-27T13:30:08;7.10;99.90
1361;DHT22;674;45.552;-122.600;2024-01-27T13:32:38;7.30;99.90
1361;DHT22;674;45.552;-122.600;2024-01-27T13:35:07;7.20;99.90
1361;DHT22;674;45.552;-122.600;2024-01-27T13:37:36;7.10;99.90
1361;DHT22;674;45.552;-122.600;2024-01-27T13:40:05;7.20;99.90
1361;DHT22;674;45.552;-122.600;2024-01-27T13:42:37;7.20;99.90
1361;DHT22;674;45.552;-122.600;2024-01-27T13:45:06;7.20;99.90
1361;DHT22;674;45.552;-122.600;2024-01-27T13:47:37;7.10;99.90
1361;DHT22;674;45.552;-122.600;2024-01-27T13:50:06;7.10;99.90
1361;DHT22;674;45.552;-122.600;2024-01-27T13:52:35;7.30;99.90
1361;DHT22;674;45.552;-122.600;2024-01-27T13:55:04;7.20;99.90
1361;DHT22;674;45.552;-122.600;2024-01-27T13:57:34;7.10;99.90
1361;DHT22;674;45.552;-122.600;2024-01-27T14:00:03;7.10;99.90
1361;DHT22;674;45.552;-122.600;2024-01-27T14:02:31;7.10;99.90
1361;DHT22;674;45.552;-122.600;2024-01-27T14:05:04;7.10;99.90
1361;DHT22;674;45.552;-122.600;2024-01-27T14:07:33;7.10;99.90
1361;DHT22;674;45.552;-122.600;2024-01-27T14:10:02;7.20;99.90
1361;DHT22;674;45.552;-122.600;2024-01-27T14:12:31;7.20;99.90
1361;DHT22;674;45.552;-122.600;2024-01-27T14:15:04;7.20;99.90
1361;DHT22;674;45.552;-122.600;2024-01-27T14:17:36;6.90;99.90
1361;DHT22;674;45.552;-122.600;2024-01-27T14:20:05;7.00;99.90
1361;DHT22;674;45.552;-122.600;2024-01-27T14:22:37;6.90;99.90
1361;DHT22;674;45.552;-122.600;2024-01-27T14:25:06;7.10;99.90
1361;DHT22;674;45.552;-122.600;2024-01-27T14:27:35;7.10;99.90
1361;DHT22;674;45.552;-122.600;2024-01-27T14:30:05;7.10;99.90
1361;DHT22;674;45.552;-122.600;2024-01-27T14:32:33;7.10;99.90
1361;DHT22;674;45.552;-122.600;2024-01-27T14:35:02;7.20;99.90
1361;DHT22;674;45.552;-122.600;2024-01-27T14:37:34;7.20;99.90
1361;DHT22;674;45.552;-122.600;2024-01-27T14:40:03;7.20;99.90
1361;DHT22;674;45.552;-122.600;2024-01-27T14:42:32;7.30;99.90
1361;DHT22;674;45.552;-122.600;2024-01-27T14:45:04;7.20;99.90
1361;DHT22;674;45.552;-122.600;2024-01-27T14:47:33;7.40;99.90
1361;DHT22;674;45.552;-122.600;2024-01-27T14:50:01;7.40;99.90
1361;DHT22;674;45.552;-122.600;2024-01-27T14:52:30;7.40;99.90
1361;DHT22;674;45.552;-122.600;2024-01-27T14:54:59;7.50;99.90
1361;DHT22;674;45.552;-122.600;2024-01-27T14:57:28;7.50;99.90
1361;DHT22;674;45.552;-122.600;2024-01-27T14:59:57;7.70;99.90
1361;DHT22;674;45.552;-122.600;2024-01-27T15:02:28;7.60;99.90
1361;DHT22;674;45.552;-122.600;2024-01-27T15:04:57;7.60;99.90
1361;DHT22;674;45.552;-122.600;2024-01-27T15:07:26;7.60;99.90
1361;DHT22;674;45.552;-122.600;2024-01-27T15:09:57;7.60;99.90
1361;DHT22;674;45.552;-122.600;2024-01-27T15:12:26;7.60;99.90
1361;DHT22;674;45.552;-122.600;2024-01-27T15:14:54;7.60;99.90
1361;DHT22;674;45.552;-122.600;2024-01-27T15:17:23;7.60;99.90
1361;DHT22;674;45.552;-122.600;2024-01-27T15:19:52;7.80;99.90
1361;DHT22;674;45.552;-122.600;2024-01-27T15:22:21;7.80;99.90
1361;DHT22;674;45.552;-122.600;2024-01-27T15:24:50;7.80;99.90
1361;DHT22;674;45.552;-122.600;2024-01-27T15:27:19;8.10;99.90
1361;DHT22;674;45.552;-122.600;2024-01-27T15:29:47;8.00;99.90
1361;DHT22;674;45.552;-122.600;2024-01-27T15:32:19;7.90;99.90
1361;DHT22;674;45.552;-122.600;2024-01-27T15:34:50;7.80;99.90
1361;DHT22;674;45.552;-122.600;2024-01-27T15:37:19;7.90;99.90
1361;DHT22;674;45.552;-122.600;2024-01-27T15:39:48;7.80;99.90
1361;DHT22;674;45.552;-122.600;2024-01-27T15:42:18;7.70;99.90
1361;DHT22;674;45.552;-122.600;2024-01-27T15:44:47;7.60;99.90
1361;DHT22;674;45.552;-122.600;2024-01-27T15:47:15;7.70;99.90
1361;DHT22;674;45.552;-122.600;2024-01-27T15:49:44;7.60;99.90
1361;DHT22;674;45.552;-122.600;2024-01-27T15:52:13;7.50;99.90
1361;DHT22;674;45.552;-122.600;2024-01-27T15:54:43;7.60;99.90
1361;DHT22;674;45.552;-122.600;2024-01-27T15:57:12;7.60;99.90
1361;DHT22;674;45.552;-122.600;2024-01-27T15:59:40;7.50;99.90